• Join FlightAware (Why Join?)
  • Login
  • US Flag 
07:53AM EDT


 

Airport Tracker/Info


-or-


 

Live Flight TrackerFlight Track Log ✈ N135FB ✈ 07-May-2013 ✈ KFLL - KSGJ

Flight Track Log - Related Links

Times and Time Zones

All times are in EDT time to prevent confusion due to time zone crossing. See the N135FB flight status page for this flight to view local times or setup timezone preferences in your user account.

Time Position Orientation Groundspeed Altitude Reporting Facility
EDT Latitude Longitude Course Direction KTS MPH feet Rate Location/Type
03:41PM 27.0925 -80.3797 345° North 187 215 7,600  Level Miami Center
03:42PM 27.1361 -80.3928 345° North 180 207 7,700  Climbing Miami Center
03:43PM 27.1839 -80.4081 344° North 180 207 7,700 -60 Level Miami Center
03:44PM 27.2356 -80.4239 345° North 180 207 7,600 -60 Descending Miami Center
03:45PM 27.2853 -80.4392 345° North 180 207 7,600  Level Miami Center
03:46PM 27.3331 -80.4525 346° North 175 201 7,600  Level Miami Center
03:47PM 27.3744 -80.4656 344° North 175 201 7,600  Level Miami Center
03:48PM 27.4283 -80.4811 346° North 175 201 7,600  Level Miami Center
03:49PM 27.4739 -80.5014 338° Northwest 175 201 7,600  Level Miami Center
03:50PM 27.5214 -80.5169 344° North 170 196 7,600  Level Miami Center
03:51PM 27.5650 -80.5253 350° North 170 196 7,600  Level Miami Center
03:52PM 27.6128 -80.5386 346° North 170 196 7,700  Climbing Miami Center
03:53PM 27.6667 -80.5519 348° North 170 196 7,700  Level Miami Center
03:54PM 27.7144 -80.5631 348° North 175 201 7,700 -60 Level Miami Center
03:55PM 27.7622 -80.5739 349° North 175 201 7,600 -60 Descending Miami Center
03:56PM 27.8056 -80.5894 342° North 180 207 7,600  Level Miami Center
03:57PM 27.8594 -80.6053 345° North 180 207 7,600  Level Miami Center
03:58PM 27.9167 -80.6333 337° Northwest 174 200 7,600  Level Orlando TRACON
03:59PM 27.9667 -80.6333 360° North 173 199 7,600 -60 Level Orlando TRACON
04:00PM 28.0167 -80.6667 330° Northwest 174 200 7,500  Descending Orlando TRACON
04:01PM 28.0500 -80.6667 360° North 179 206 7,600  Climbing Orlando TRACON
04:02PM 28.1000 -80.6667 360° North 179 206 7,600  Level Orlando TRACON
04:03PM 28.1667 -80.6500 12° North 174 200 7,600  Level Orlando TRACON
04:04PM 28.2000 -80.6333 24° Northeast 179 206 7,600  Level Orlando TRACON
04:05PM 28.2500 -80.6333 360° North 177 204 7,600  Level Orlando TRACON
04:06PM 28.3000 -80.6167 16° North 182 209 7,600  Level Orlando TRACON
04:07PM 28.3500 -80.6167 360° North 172 198 7,600  Level Orlando TRACON
04:08PM 28.4000 -80.6333 344° North 174 200 7,700  Climbing Orlando TRACON
04:09PM 28.4333 -80.6500 336° Northwest 173 199 7,600 -60 Descending Orlando TRACON
04:10PM 28.4833 -80.6667 344° North 172 198 7,600  Level Orlando TRACON
04:11PM 28.5333 -80.6833 344° North 170 196 7,600  Level Orlando TRACON
04:12PM 28.5833 -80.7167 330° Northwest 166 191 7,600 -240 Level Orlando TRACON
04:13PM 28.6167 -80.7333 336° Northwest 173 199 7,200 -480 Descending Orlando TRACON
04:14PM 28.6667 -80.7333 360° North 184 212 6,800 -480 Descending Orlando TRACON
04:15PM 28.7167 -80.7500 344° North 184 212 6,200 -540 Descending Orlando TRACON
04:16PM 28.7667 -80.7667 344° North 182 209 5,800 -420 Descending Orlando TRACON
04:18PM 28.8528 -80.7900 347° North 175 201 5,100 -360 Descending Jacksonville Center
04:19PM 28.8969 -80.8128 336° Northwest 173 199 4,900 -120 Descending Jacksonville Center
04:20PM 28.9472 -80.8331 341° North 170 196 4,900  Level Jacksonville Center
04:21PM 28.9892 -80.8489 342° North 166 191 4,900  Level Jacksonville Center
04:22PM 29.0356 -80.8692 339° North 160 184 4,900  Level Jacksonville Center
04:23PM 29.0714 -80.8944 328° Northwest 163 188 4,900  Level Jacksonville Center
04:24PM 29.1136 -80.9222 330° Northwest 161 185 4,900  Level Jacksonville Center
04:25PM 29.1517 -80.9525 325° Northwest 159 183 4,900  Level Jacksonville Center
04:26PM 29.1917 -80.9753 334° Northwest 161 185 4,900 -120 Level Jacksonville Center
04:27PM 29.2294 -80.9961 334° Northwest 170 196 4,700 -240 Descending Jacksonville Center
04:28PM 29.2736 -81.0214 333° Northwest 171 197 4,500 -60 Descending Jacksonville Center
04:29PM 29.3158 -81.0419 337° Northwest 158 182 4,600 60 Climbing Jacksonville Center
04:30PM 29.3558 -81.0628 336° Northwest 155 178 4,700 -120 Climbing Jacksonville Center
04:31PM 29.3914 -81.0789 338° Northwest 158 182 4,400 -360 Descending Jacksonville Center